Time;durP1;ratioP1;P1;durP2;ratioP2;P2;SDS_P1;SDS_P2;PMS_P1;PMS_P2;Temp;Humidity;BMP_temperature;BMP_pressure;BME280_temperature;BME280_humidity;BME280_pressure;Samples;Min_cycle;Max_cycle;Signal;HPM_P1;HPM_P2
2023/03/23 00:00:31;;;;;;;3.17;2.03;;;;;;;;;;5053328;28;20040;-69
2023/03/23 00:02:57;;;;;;;2.92;1.65;;;;;;;;;;5053625;28;20029;-69
2023/03/23 00:05:23;;;;;;;4.15;1.70;;;;;;;;;;5053588;28;20412;-69
2023/03/23 00:07:52;;;;;;;3.33;1.98;;;;;;;;;;5053928;28;20024;-69
2023/03/23 00:10:18;;;;;;;3.50;1.70;;;;;;;;;;5053370;28;20021;-69
2023/03/23 00:12:44;;;;;;;2.13;1.67;;;;;;;;;;5053187;28;20021;-69
2023/03/23 00:15:12;;;;;;;2.95;1.70;;;;;;;;;;5053604;28;20041;-69
2023/03/23 00:17:40;;;;;;;5.32;2.60;;;;;;;;;;5053584;28;20050;-69
2023/03/23 00:20:08;;;;;;;4.13;1.90;;;;;;;;;;5053263;28;20375;-69
2023/03/23 00:22:37;;;;;;;3.22;1.98;;;;;;;;;;5053187;28;20017;-69
2023/03/23 00:25:08;;;;;;;4.93;2.20;;;;;;;;;;5053098;28;20035;-69
2023/03/23 00:27:34;;;;;;;3.47;2.20;;;;;;;;;;5053040;28;20037;-68
2023/03/23 00:30:01;;;;;;;6.20;2.28;;;;;;;;;;5052437;28;20029;-69
2023/03/23 00:32:28;;;;;;;3.88;2.20;;;;;;;;;;5053268;28;20040;-69
2023/03/23 00:35:01;;;;;;;3.58;2.20;;;;;;;;;;5053126;28;20033;-68
2023/03/23 00:37:27;;;;;;;3.15;2.15;;;;;;;;;;5053971;28;20033;-69
2023/03/23 00:39:56;;;;;;;2.55;1.70;;;;;;;;;;5051924;28;20086;-69
2023/03/23 00:42:23;;;;;;;3.22;1.90;;;;;;;;;;5052913;28;20025;-69
2023/03/23 00:44:50;;;;;;;3.20;2.00;;;;;;;;;;5053217;28;20022;-69
2023/03/23 00:47:17;;;;;;;3.40;1.95;;;;;;;;;;5053156;28;20029;-69
2023/03/23 00:49:43;;;;;;;7.70;2.15;;;;;;;;;;5052653;28;20458;-69
2023/03/23 00:52:10;;;;;;;3.72;2.00;;;;;;;;;;5051769;28;20029;-69
2023/03/23 00:54:37;;;;;;;2.45;1.77;;;;;;;;;;5051409;28;20043;-68
2023/03/23 00:57:04;;;;;;;2.20;1.60;;;;;;;;;;5052648;28;20025;-68
2023/03/23 00:59:30;;;;;;;3.10;2.00;;;;;;;;;;5052411;28;20032;-69
2023/03/23 01:01:57;;;;;;;2.25;1.50;;;;;;;;;;5052545;28;20543;-69
2023/03/23 01:04:23;;;;;;;3.63;2.13;;;;;;;;;;5052338;28;20037;-69
2023/03/23 01:06:51;;;;;;;7.07;1.73;;;;;;;;;;5052314;28;20029;-68
2023/03/23 01:09:19;;;;;;;2.33;1.40;;;;;;;;;;5052275;28;20474;-69
2023/03/23 01:11:45;;;;;;;5.90;1.63;;;;;;;;;;5052438;28;20035;-69
2023/03/23 01:14:13;;;;;;;4.47;1.52;;;;;;;;;;5052798;28;20025;-69
2023/03/23 01:16:39;;;;;;;7.07;1.90;;;;;;;;;;5052626;28;20507;-69
2023/03/23 01:19:05;;;;;;;6.00;2.25;;;;;;;;;;5052359;28;20024;-69
2023/03/23 01:21:32;;;;;;;2.75;1.70;;;;;;;;;;5052027;28;20404;-69
2023/03/23 01:23:58;;;;;;;3.83;1.90;;;;;;;;;;5052053;28;20031;-69
2023/03/23 01:26:26;;;;;;;2.90;1.80;;;;;;;;;;5052404;28;20033;-69
2023/03/23 01:28:53;;;;;;;2.50;1.83;;;;;;;;;;5051937;28;20047;-69
2023/03/23 01:31:21;;;;;;;4.32;1.60;;;;;;;;;;5052326;28;20028;-69
2023/03/23 01:33:47;;;;;;;2.80;1.90;;;;;;;;;;5052303;28;20025;-69
2023/03/23 01:36:15;;;;;;;5.28;2.00;;;;;;;;;;5052471;28;20023;-69
2023/03/23 01:38:43;;;;;;;4.13;1.85;;;;;;;;;;5052255;28;20024;-69
2023/03/23 01:41:09;;;;;;;2.38;1.70;;;;;;;;;;5051582;28;20055;-69
2023/03/23 01:43:35;;;;;;;2.33;1.50;;;;;;;;;;5052065;28;20021;-69
2023/03/23 01:46:01;;;;;;;3.28;1.73;;;;;;;;;;5052173;28;20027;-69
2023/03/23 01:48:36;;;;;;;2.60;1.70;;;;;;;;;;5051910;28;20422;-69
2023/03/23 01:51:10;;;;;;;2.53;1.50;;;;;;;;;;5051998;28;20029;-69
2023/03/23 01:53:48;;;;;;;2.97;1.50;;;;;;;;;;5051742;28;20138;-69
2023/03/23 01:56:18;;;;;;;3.50;2.25;;;;;;;;;;5052321;28;20032;-69
2023/03/23 01:58:45;;;;;;;4.95;1.75;;;;;;;;;;5051838;28;20374;-69
2023/03/23 02:01:13;;;;;;;4.57;1.98;;;;;;;;;;5051908;28;20052;-69
2023/03/23 02:03:42;;;;;;;4.45;1.70;;;;;;;;;;5052291;28;20013;-69
2023/03/23 02:06:08;;;;;;;5.10;1.75;;;;;;;;;;5051764;28;20078;-69
2023/03/23 02:08:35;;;;;;;3.92;1.95;;;;;;;;;;5051621;28;20029;-69
2023/03/23 02:11:01;;;;;;;2.90;1.80;;;;;;;;;;5051889;28;20029;-69
2023/03/23 02:13:28;;;;;;;4.13;2.00;;;;;;;;;;5051668;28;20039;-68
2023/03/23 02:16:01;;;;;;;3.35;2.00;;;;;;;;;;5051890;28;20028;-69
2023/03/23 02:18:47;;;;;;;3.00;1.55;;;;;;;;;;5052058;28;20027;-69
2023/03/23 02:21:32;;;;;;;3.47;1.50;;;;;;;;;;5051401;28;20029;-69
2023/03/23 02:24:07;;;;;;;5.70;1.92;;;;;;;;;;5051692;28;20477;-69
2023/03/23 02:26:49;;;;;;;2.72;1.45;;;;;;;;;;5051472;28;20025;-69
2023/03/23 02:29:36;;;;;;;3.35;1.45;;;;;;;;;;5051385;28;20049;-69
2023/03/23 02:32:12;;;;;;;3.15;1.77;;;;;;;;;;5051613;28;20033;-69
2023/03/23 02:34:42;;;;;;;2.75;1.80;;;;;;;;;;5084192;28;20086;-69
2023/03/23 02:37:18;;;;;;;3.42;2.00;;;;;;;;;;5051564;28;20029;-69
2023/03/23 02:39:48;;;;;;;3.15;1.75;;;;;;;;;;5051648;28;20035;-69
2023/03/23 02:42:17;;;;;;;2.17;1.60;;;;;;;;;;5051519;28;20029;-69
2023/03/23 02:44:45;;;;;;;5.55;2.00;;;;;;;;;;5051376;28;20021;-69
2023/03/23 02:47:13;;;;;;;6.05;1.80;;;;;;;;;;5051469;28;20021;-69
2023/03/23 02:49:41;;;;;;;4.10;1.95;;;;;;;;;;5051269;28;20021;-69
2023/03/23 02:52:12;;;;;;;3.90;2.25;;;;;;;;;;5051588;28;20424;-69
2023/03/23 02:54:39;;;;;;;4.32;2.28;;;;;;;;;;5055074;28;20024;-69
2023/03/23 02:57:06;;;;;;;4.47;2.38;;;;;;;;;;5055001;28;20478;-69
2023/03/23 02:59:32;;;;;;;5.20;2.03;;;;;;;;;;5054811;28;20033;-69
2023/03/23 03:02:10;;;;;;;3.95;2.45;;;;;;;;;;5054876;28;20389;-69
2023/03/23 03:04:39;;;;;;;2.92;2.10;;;;;;;;;;5054843;28;20036;-69
2023/03/23 03:07:24;;;;;;;3.22;1.70;;;;;;;;;;5054636;28;20031;-69
2023/03/23 03:09:53;;;;;;;2.70;1.73;;;;;;;;;;5054902;28;20025;-69
2023/03/23 03:12:35;;;;;;;2.20;1.70;;;;;;;;;;5054466;28;20043;-69
2023/03/23 03:15:10;;;;;;;2.92;1.90;;;;;;;;;;5054521;28;20041;-69
2023/03/23 03:17:40;;;;;;;3.88;1.70;;;;;;;;;;5054629;28;20025;-69
2023/03/23 03:20:09;;;;;;;3.47;1.70;;;;;;;;;;5054236;28;20041;-69
2023/03/23 03:22:37;;;;;;;3.15;1.83;;;;;;;;;;5054616;28;20209;-69
2023/03/23 03:25:04;;;;;;;2.45;1.65;;;;;;;;;;5054159;28;20040;-69
2023/03/23 03:27:31;;;;;;;2.13;1.77;;;;;;;;;;5054354;28;20029;-68
2023/03/23 03:29:59;;;;;;;4.07;1.80;;;;;;;;;;5054306;28;20029;-69
2023/03/23 03:32:38;;;;;;;2.75;1.60;;;;;;;;;;5054237;28;20401;-69
2023/03/23 03:35:05;;;;;;;3.47;1.90;;;;;;;;;;5054248;28;20031;-69
2023/03/23 03:37:39;;;;;;;3.80;1.85;;;;;;;;;;5054178;28;20048;-69
2023/03/23 03:40:11;;;;;;;4.45;1.80;;;;;;;;;;5052929;28;20039;-69
2023/03/23 03:42:38;;;;;;;4.28;1.70;;;;;;;;;;5054568;28;20092;-69
2023/03/23 03:45:05;;;;;;;3.70;1.80;;;;;;;;;;5053980;28;20047;-69
2023/03/23 03:47:32;;;;;;;3.47;1.63;;;;;;;;;;5053912;28;20119;-68
2023/03/23 03:49:58;;;;;;;2.95;1.58;;;;;;;;;;5053966;28;20017;-69
2023/03/23 03:52:24;;;;;;;2.67;1.50;;;;;;;;;;5053669;28;20021;-69
2023/03/23 03:54:51;;;;;;;5.18;1.63;;;;;;;;;;5053791;28;20031;-69
2023/03/23 03:57:17;;;;;;;2.15;1.30;;;;;;;;;;5054069;28;20374;-69
2023/03/23 03:59:45;;;;;;;3.00;1.60;;;;;;;;;;5052354;28;20031;-69
2023/03/23 04:02:14;;;;;;;2.47;1.25;;;;;;;;;;5053604;28;20029;-69
2023/03/23 04:04:41;;;;;;;2.08;1.40;;;;;;;;;;5053367;28;20029;-69
2023/03/23 04:07:10;;;;;;;4.57;1.92;;;;;;;;;;5053565;28;20027;-69
2023/03/23 04:09:38;;;;;;;3.63;1.70;;;;;;;;;;5053399;28;20025;-69
2023/03/23 04:12:05;;;;;;;5.93;1.63;;;;;;;;;;5053481;28;20047;-69
2023/03/23 04:14:31;;;;;;;2.28;1.42;;;;;;;;;;5053347;28;20494;-69
2023/03/23 04:16:58;;;;;;;4.43;1.38;;;;;;;;;;5053334;28;20018;-69
2023/03/23 04:19:25;;;;;;;2.47;1.65;;;;;;;;;;5053148;28;20020;-68
2023/03/23 04:21:52;;;;;;;2.55;1.52;;;;;;;;;;5053134;28;20029;-69
2023/03/23 04:24:20;;;;;;;2.95;1.60;;;;;;;;;;5053572;28;20024;-69
2023/03/23 04:26:47;;;;;;;3.22;1.55;;;;;;;;;;5053901;28;20033;-69
2023/03/23 04:29:15;;;;;;;1.98;1.52;;;;;;;;;;5053135;28;20094;-69
2023/03/23 04:31:44;;;;;;;2.17;1.50;;;;;;;;;;5053014;28;20032;-69
2023/03/23 04:34:14;;;;;;;4.15;1.77;;;;;;;;;;5053063;28;20017;-69
2023/03/23 04:36:41;;;;;;;4.22;1.58;;;;;;;;;;5053743;28;20024;-69
2023/03/23 04:39:09;;;;;;;3.15;1.67;;;;;;;;;;5052823;28;20561;-69
2023/03/23 04:41:39;;;;;;;4.40;1.60;;;;;;;;;;5052898;28;20029;-68
2023/03/23 04:44:06;;;;;;;6.78;2.92;;;;;;;;;;5053489;28;20039;-69
2023/03/23 04:46:33;;;;;;;4.00;2.30;;;;;;;;;;5052565;28;20035;-69
2023/03/23 04:49:00;;;;;;;6.22;3.20;;;;;;;;;;5052664;28;20470;-69
2023/03/23 04:51:27;;;;;;;6.50;4.90;;;;;;;;;;5053020;28;20490;-68
2023/03/23 04:53:54;;;;;;;7.22;3.33;;;;;;;;;;5052878;28;20025;-69
2023/03/23 04:56:20;;;;;;;9.80;5.60;;;;;;;;;;5052836;28;20029;-69
2023/03/23 04:58:47;;;;;;;10.93;5.80;;;;;;;;;;5052781;28;20310;-69
2023/03/23 05:01:14;;;;;;;10.05;6.35;;;;;;;;;;5052515;28;20037;-69
2023/03/23 05:03:41;;;;;;;10.57;6.18;;;;;;;;;;5052628;28;20035;-68
2023/03/23 05:06:07;;;;;;;9.95;6.60;;;;;;;;;;5052581;28;20029;-69
2023/03/23 05:08:34;;;;;;;5.88;4.50;;;;;;;;;;5052671;28;20036;-69
2023/03/23 05:11:02;;;;;;;6.32;3.33;;;;;;;;;;5052793;28;20039;-69
2023/03/23 05:13:29;;;;;;;4.68;3.50;;;;;;;;;;5051382;28;20025;-69
2023/03/23 05:15:55;;;;;;;10.75;6.30;;;;;;;;;;5051574;28;20021;-68
2023/03/23 05:18:22;;;;;;;10.02;3.85;;;;;;;;;;5052585;28;20023;-69
2023/03/23 05:20:48;;;;;;;8.63;3.60;;;;;;;;;;5052161;28;20032;-69
2023/03/23 05:23:15;;;;;;;4.90;2.80;;;;;;;;;;5052402;28;20025;-69
2023/03/23 05:25:42;;;;;;;5.63;3.70;;;;;;;;;;5052487;28;20024;-68
2023/03/23 05:28:10;;;;;;;6.15;3.40;;;;;;;;;;5051949;28;20404;-68
2023/03/23 05:30:38;;;;;;;8.98;4.38;;;;;;;;;;5051972;28;20025;-69
2023/03/23 05:33:05;;;;;;;7.43;4.63;;;;;;;;;;5052123;28;20028;-69
2023/03/23 05:35:31;;;;;;;9.02;5.60;;;;;;;;;;5052287;28;20085;-69
2023/03/23 05:37:58;;;;;;;8.77;5.70;;;;;;;;;;5052289;28;20017;-69
2023/03/23 05:40:25;;;;;;;9.43;6.45;;;;;;;;;;5051966;28;20043;-69
2023/03/23 05:42:52;;;;;;;10.73;6.38;;;;;;;;;;5052171;28;20023;-69
2023/03/23 05:45:18;;;;;;;8.75;6.50;;;;;;;;;;5052061;28;20027;-68
2023/03/23 05:47:45;;;;;;;12.88;7.00;;;;;;;;;;5051851;28;20055;-68
2023/03/23 05:50:12;;;;;;;11.38;6.47;;;;;;;;;;5051976;28;20029;-69
2023/03/23 05:52:39;;;;;;;8.30;5.88;;;;;;;;;;5051774;28;20025;-69
2023/03/23 05:55:06;;;;;;;12.27;7.32;;;;;;;;;;5052140;28;20029;-69
2023/03/23 05:57:32;;;;;;;9.50;6.68;;;;;;;;;;5051880;28;20025;-69
2023/03/23 05:59:59;;;;;;;12.63;7.88;;;;;;;;;;5051741;28;20025;-69
2023/03/23 06:02:29;;;;;;;11.35;7.10;;;;;;;;;;5052099;28;20044;-69
2023/03/23 06:04:57;;;;;;;8.95;6.50;;;;;;;;;;5051807;28;20367;-69
2023/03/23 06:07:26;;;;;;;10.82;6.35;;;;;;;;;;5051814;28;20027;-69
2023/03/23 06:09:53;;;;;;;4.72;3.40;;;;;;;;;;5051813;28;20037;-69
2023/03/23 06:12:20;;;;;;;5.40;2.92;;;;;;;;;;5051947;28;20031;-69
2023/03/23 06:14:47;;;;;;;5.88;2.67;;;;;;;;;;5051750;28;20025;-69
2023/03/23 06:17:14;;;;;;;6.75;2.95;;;;;;;;;;5052068;28;20021;-69
2023/03/23 06:19:41;;;;;;;4.50;3.03;;;;;;;;;;5051736;28;20033;-69
2023/03/23 06:22:08;;;;;;;11.15;3.88;;;;;;;;;;5051834;28;20029;-69
2023/03/23 06:24:34;;;;;;;6.55;3.38;;;;;;;;;;5051576;28;20508;-69
2023/03/23 06:27:00;;;;;;;4.13;2.58;;;;;;;;;;5051913;28;20033;-68
2023/03/23 06:29:28;;;;;;;5.03;2.70;;;;;;;;;;5055212;28;20033;-68
2023/03/23 06:31:59;;;;;;;2.42;1.77;;;;;;;;;;5055413;28;20029;-69
2023/03/23 06:34:25;;;;;;;3.80;1.75;;;;;;;;;;5055262;28;20018;-69
2023/03/23 06:36:52;;;;;;;3.08;2.10;;;;;;;;;;5055948;28;20029;-68
2023/03/23 06:39:18;;;;;;;3.90;2.50;;;;;;;;;;5055480;28;20025;-69
2023/03/23 06:41:45;;;;;;;4.55;2.30;;;;;;;;;;5055131;28;20286;-69
2023/03/23 06:44:13;;;;;;;5.18;2.22;;;;;;;;;;5055062;28;20033;-69
2023/03/23 06:46:40;;;;;;;3.72;2.60;;;;;;;;;;5055522;28;20094;-69
2023/03/23 06:49:06;;;;;;;5.45;2.35;;;;;;;;;;5054914;28;20023;-69
2023/03/23 06:51:33;;;;;;;6.93;2.83;;;;;;;;;;5055214;28;20074;-69
2023/03/23 06:54:00;;;;;;;6.40;2.90;;;;;;;;;;5055082;28;20078;-69
2023/03/23 06:56:26;;;;;;;5.55;2.40;;;;;;;;;;5055208;28;20031;-69
2023/03/23 06:58:52;;;;;;;6.03;2.45;;;;;;;;;;5054938;28;20032;-69
2023/03/23 07:01:19;;;;;;;3.15;2.15;;;;;;;;;;5054694;28;20049;-69
2023/03/23 07:03:46;;;;;;;4.43;2.20;;;;;;;;;;5054920;28;20013;-69
2023/03/23 07:06:12;;;;;;;3.45;2.25;;;;;;;;;;5054868;28;20036;-69
2023/03/23 07:08:39;;;;;;;6.13;2.50;;;;;;;;;;5054334;28;20017;-69
2023/03/23 07:11:06;;;;;;;4.00;2.25;;;;;;;;;;5050795;28;20025;-69
2023/03/23 07:13:32;;;;;;;3.85;2.33;;;;;;;;;;5053347;28;20027;-69
2023/03/23 07:15:59;;;;;;;3.10;2.20;;;;;;;;;;5054279;28;20416;-69
2023/03/23 07:18:27;;;;;;;4.18;2.15;;;;;;;;;;5054256;28;20025;-69
2023/03/23 07:20:53;;;;;;;5.80;2.63;;;;;;;;;;5052699;28;20051;-69
2023/03/23 07:23:20;;;;;;;14.32;3.40;;;;;;;;;;5054788;28;20021;-69
2023/03/23 07:25:48;;;;;;;7.63;3.25;;;;;;;;;;5053739;28;20119;-69
2023/03/23 07:28:15;;;;;;;8.20;3.58;;;;;;;;;;5053776;28;20045;-69
2023/03/23 07:30:41;;;;;;;6.97;2.97;;;;;;;;;;5052324;28;20035;-69
2023/03/23 07:33:09;;;;;;;7.38;2.70;;;;;;;;;;5051695;28;20018;-69
2023/03/23 07:35:36;;;;;;;6.65;2.30;;;;;;;;;;5053635;28;20027;-69
2023/03/23 07:38:03;;;;;;;5.55;2.40;;;;;;;;;;5053396;28;20029;-69
2023/03/23 07:40:33;;;;;;;8.38;2.45;;;;;;;;;;5052999;28;20051;-69
2023/03/23 07:42:59;;;;;;;6.47;2.60;;;;;;;;;;5051547;28;20486;-69
2023/03/23 07:45:26;;;;;;;3.67;2.58;;;;;;;;;;5072086;28;20027;-69
2023/03/23 07:47:53;;;;;;;4.65;2.60;;;;;;;;;;5069930;28;20020;-70
2023/03/23 07:50:24;;;;;;;6.50;2.90;;;;;;;;;;5051388;28;20485;-69
2023/03/23 07:52:50;;;;;;;;;;;;;;;;;;5050129;28;20477;-69
2023/03/23 07:55:17;;;;;;;5.35;2.75;;;;;;;;;;5052335;28;19912;-69
2023/03/23 07:57:44;;;;;;;6.75;2.80;;;;;;;;;;5052426;28;20005;-69
2023/03/23 08:00:19;;;;;;;7.60;3.50;;;;;;;;;;5048921;28;20043;-70
2023/03/23 08:02:49;;;;;;;7.40;3.97;;;;;;;;;;5053028;28;20021;-68
2023/03/23 08:05:17;;;;;;;7.47;3.58;;;;;;;;;;5052977;28;20033;-69
2023/03/23 08:07:44;;;;;;;6.50;3.88;;;;;;;;;;5052448;28;20393;-69
2023/03/23 08:10:11;;;;;;;7.60;3.63;;;;;;;;;;5051849;28;20025;-69
2023/03/23 08:12:42;;;;;;;5.68;3.28;;;;;;;;;;5052798;28;20033;-68
2023/03/23 08:15:12;;;;;;;8.75;3.55;;;;;;;;;;5052669;28;20035;-68
2023/03/23 08:17:38;;;;;;;6.30;4.30;;;;;;;;;;5052525;28;20370;-68
2023/03/23 08:20:10;;;;;;;12.57;4.78;;;;;;;;;;5051993;28;20040;-68
2023/03/23 08:22:38;;;;;;;7.82;4.47;;;;;;;;;;5052288;28;20389;-68
2023/03/23 08:25:05;;;;;;;7.43;4.57;;;;;;;;;;5051918;28;20033;-69
2023/03/23 08:27:32;;;;;;;9.13;4.90;;;;;;;;;;5052075;28;20040;-69
2023/03/23 08:29:59;;;;;;;8.95;5.15;;;;;;;;;;5051881;28;20058;-69
2023/03/23 08:32:25;;;;;;;9.80;5.20;;;;;;;;;;5051072;28;20033;-69
2023/03/23 08:34:52;;;;;;;8.63;4.90;;;;;;;;;;5050395;28;20039;-68
2023/03/23 08:37:18;;;;;;;9.48;4.60;;;;;;;;;;5051351;28;20027;-67
2023/03/23 08:39:45;;;;;;;8.32;5.00;;;;;;;;;;5050649;28;20658;-69
2023/03/23 08:42:11;;;;;;;7.43;4.78;;;;;;;;;;5050568;28;20033;-69
2023/03/23 08:44:38;;;;;;;16.63;8.23;;;;;;;;;;5052106;28;20047;-69
2023/03/23 08:47:05;;;;;;;15.27;5.88;;;;;;;;;;5050825;28;20036;-69
2023/03/23 08:49:34;;;;;;;15.13;8.30;;;;;;;;;;5051371;28;20035;-68
2023/03/23 08:52:00;;;;;;;14.43;6.78;;;;;;;;;;5051656;28;20664;-69
2023/03/23 08:54:27;;;;;;;9.63;6.55;;;;;;;;;;5050932;28;20095;-67
2023/03/23 08:56:54;;;;;;;7.78;6.30;;;;;;;;;;5051566;28;20478;-68
2023/03/23 08:59:20;;;;;;;9.07;5.70;;;;;;;;;;5051920;28;20420;-68
2023/03/23 09:01:47;;;;;;;8.07;5.95;;;;;;;;;;5051309;28;20040;-69
2023/03/23 09:04:14;;;;;;;12.25;6.55;;;;;;;;;;5051826;28;20481;-69
2023/03/23 09:06:41;;;;;;;9.70;6.30;;;;;;;;;;5051574;28;20025;-69
2023/03/23 09:09:09;;;;;;;7.68;5.65;;;;;;;;;;5051056;28;20017;-69
2023/03/23 09:11:35;;;;;;;9.27;6.15;;;;;;;;;;5040789;28;20025;-69
2023/03/23 09:14:02;;;;;;;7.32;6.38;;;;;;;;;;5051726;28;20031;-69
2023/03/23 09:16:29;;;;;;;7.85;5.95;;;;;;;;;;5051387;28;20037;-68
2023/03/23 09:18:56;;;;;;;11.48;6.03;;;;;;;;;;5051239;28;20017;-69
2023/03/23 09:21:26;;;;;;;9.48;5.80;;;;;;;;;;5051262;28;20041;-68
2023/03/23 09:23:53;;;;;;;6.47;5.53;;;;;;;;;;5050575;28;20029;-69
2023/03/23 09:26:19;;;;;;;11.55;6.60;;;;;;;;;;5052325;28;20028;-68
2023/03/23 09:28:46;;;;;;;8.57;5.65;;;;;;;;;;5051138;28;20075;-68
2023/03/23 09:31:12;;;;;;;11.73;7.32;;;;;;;;;;5051388;28;20472;-68
2023/03/23 09:33:39;;;;;;;8.60;5.38;;;;;;;;;;5051397;28;20456;-69
2023/03/23 09:36:07;;;;;;;6.35;4.82;;;;;;;;;;5051404;28;20021;-70
2023/03/23 09:38:36;;;;;;;9.18;5.30;;;;;;;;;;5051034;28;20035;-68
2023/03/23 09:41:14;;;;;;;6.88;4.90;;;;;;;;;;5051092;28;20051;-68
2023/03/23 09:43:40;;;;;;;9.32;5.10;;;;;;;;;;5051142;28;20025;-68
2023/03/23 09:46:16;;;;;;;7.15;5.38;;;;;;;;;;5051169;28;20029;-69
2023/03/23 09:48:48;;;;;;;7.18;5.15;;;;;;;;;;5051238;28;20028;-69
2023/03/23 09:51:20;;;;;;;5.85;5.20;;;;;;;;;;5048551;28;20025;-69
2023/03/23 09:54:04;;;;;;;6.47;4.85;;;;;;;;;;5050420;28;20019;-68
2023/03/23 09:56:35;;;;;;;6.05;4.72;;;;;;;;;;5055150;28;20032;-70
2023/03/23 09:59:20;;;;;;;7.07;4.80;;;;;;;;;;5050368;28;20028;-69
2023/03/23 10:01:51;;;;;;;6.78;4.35;;;;;;;;;;5051897;28;20043;-68
2023/03/23 10:04:33;;;;;;;6.70;4.70;;;;;;;;;;5054816;28;20078;-69
2023/03/23 10:07:02;;;;;;;6.22;4.43;;;;;;;;;;5054893;28;20029;-69
2023/03/23 10:09:29;;;;;;;7.60;4.45;;;;;;;;;;5054694;28;20017;-69
2023/03/23 10:12:10;;;;;;;8.15;4.57;;;;;;;;;;5055197;28;20040;-69
2023/03/23 10:14:39;;;;;;;5.90;4.45;;;;;;;;;;5054689;28;20021;-68
2023/03/23 10:17:21;;;;;;;5.68;4.20;;;;;;;;;;5054247;28;20021;-69
2023/03/23 10:19:55;;;;;;;6.65;4.53;;;;;;;;;;5053923;28;20788;-69
2023/03/23 10:22:32;;;;;;;4.70;3.88;;;;;;;;;;5052969;28;20059;-69
2023/03/23 10:25:04;;;;;;;5.82;4.20;;;;;;;;;;5054564;28;20023;-69
2023/03/23 10:27:39;;;;;;;7.03;4.55;;;;;;;;;;5055180;28;20048;-69
2023/03/23 10:30:15;;;;;;;7.43;4.10;;;;;;;;;;5053357;28;20041;-69
2023/03/23 10:32:41;;;;;;;6.50;4.07;;;;;;;;;;5054696;28;20032;-69
2023/03/23 10:35:11;;;;;;;5.78;3.95;;;;;;;;;;5053550;28;20102;-69
2023/03/23 10:37:40;;;;;;;5.72;3.90;;;;;;;;;;5054439;28;20021;-69
2023/03/23 10:40:14;;;;;;;5.30;3.63;;;;;;;;;;5040561;28;20091;-70
2023/03/23 10:42:41;;;;;;;4.82;3.35;;;;;;;;;;5054464;28;20025;-68
2023/03/23 10:45:17;;;;;;;5.82;3.45;;;;;;;;;;5054079;28;20032;-69
2023/03/23 10:47:46;;;;;;;5.40;3.70;;;;;;;;;;5054399;28;20020;-69
2023/03/23 10:50:17;;;;;;;4.68;3.53;;;;;;;;;;5049248;28;20396;-69
2023/03/23 10:52:44;;;;;;;5.43;3.20;;;;;;;;;;5054931;28;20040;-69
2023/03/23 10:55:13;;;;;;;5.07;3.45;;;;;;;;;;5052575;28;20041;-69
2023/03/23 10:57:42;;;;;;;7.05;3.45;;;;;;;;;;5053445;28;20013;-70
2023/03/23 11:00:22;;;;;;;8.45;3.90;;;;;;;;;;5064300;28;20037;-69
2023/03/23 11:03:02;;;;;;;5.07;3.58;;;;;;;;;;5053932;28;20462;-69
2023/03/23 11:05:34;;;;;;;6.23;3.87;;;;;;;;;;5067609;28;20501;-69
2023/03/23 11:08:01;;;;;;;6.28;3.75;;;;;;;;;;5073917;28;20382;-68
2023/03/23 11:10:38;;;;;;;3.97;3.50;;;;;;;;;;5066309;28;20374;-69
2023/03/23 11:13:09;;;;;;;3.88;3.30;;;;;;;;;;5052875;28;20025;-69
2023/03/23 11:15:37;;;;;;;4.47;3.75;;;;;;;;;;5053299;28;20025;-69
2023/03/23 11:18:07;;;;;;;7.25;3.58;;;;;;;;;;5053411;28;20044;-68
2023/03/23 11:20:36;;;;;;;4.72;3.58;;;;;;;;;;5053701;28;20493;-69
2023/03/23 11:23:08;;;;;;;5.80;3.55;;;;;;;;;;5053409;28;20078;-68
2023/03/23 11:25:35;;;;;;;6.57;3.38;;;;;;;;;;5060843;28;20457;-68
2023/03/23 11:28:02;;;;;;;4.25;3.33;;;;;;;;;;5073707;28;20058;-69
2023/03/23 11:30:31;;;;;;;4.93;2.88;;;;;;;;;;5073765;28;20550;-69
2023/03/23 11:33:01;;;;;;;3.72;2.67;;;;;;;;;;5073611;28;20063;-69
2023/03/23 11:35:28;;;;;;;4.43;2.75;;;;;;;;;;5073867;28;20032;-69
2023/03/23 11:37:56;;;;;;;3.47;2.75;;;;;;;;;;5073967;28;20046;-69
2023/03/23 11:40:24;;;;;;;4.45;2.90;;;;;;;;;;5073425;28;20028;-69
2023/03/23 11:42:50;;;;;;;4.75;3.00;;;;;;;;;;5073764;28;20034;-69
2023/03/23 11:45:17;;;;;;;5.80;3.03;;;;;;;;;;5072529;28;20393;-69
2023/03/23 11:47:53;;;;;;;3.63;3.03;;;;;;;;;;5073254;28;20039;-69
2023/03/23 11:50:46;;;;;;;3.65;2.85;;;;;;;;;;5073578;28;20027;-69
2023/03/23 11:53:31;;;;;;;4.63;2.90;;;;;;;;;;5031337;28;20038;-70
2023/03/23 11:56:25;;;;;;;4.28;3.03;;;;;;;;;;5031658;28;20052;-69
2023/03/23 11:58:53;;;;;;;2.65;2.42;;;;;;;;;;5010714;28;20044;-70
2023/03/23 12:01:33;;;;;;;3.47;2.50;;;;;;;;;;5009016;28;20545;-69
2023/03/23 12:04:02;;;;;;;3.00;2.23;;;;;;;;;;5010781;28;20038;-69
2023/03/23 12:06:39;;;;;;;5.22;2.40;;;;;;;;;;5010723;28;20033;-70
2023/03/23 12:09:26;;;;;;;3.10;2.53;;;;;;;;;;5010878;28;20028;-69
2023/03/23 12:11:52;;;;;;;3.95;2.40;;;;;;;;;;5001112;28;20502;-69
2023/03/23 12:14:19;;;;;;;3.50;2.60;;;;;;;;;;5011008;28;20106;-69
2023/03/23 12:16:46;;;;;;;2.00;1.83;;;;;;;;;;5011009;28;20034;-69
2023/03/23 12:19:31;;;;;;;4.88;2.42;;;;;;;;;;5010759;28;20036;-69
2023/03/23 12:22:03;;;;;;;3.60;2.80;;;;;;;;;;5010689;28;20052;-69
2023/03/23 12:24:35;;;;;;;4.80;2.42;;;;;;;;;;5010637;28;20091;-69
2023/03/23 12:27:17;;;;;;;3.38;2.58;;;;;;;;;;5010359;28;20572;-69
2023/03/23 12:29:52;;;;;;;3.85;2.53;;;;;;;;;;5025748;28;20033;-69
2023/03/23 12:32:21;;;;;;;3.45;2.30;;;;;;;;;;5051755;28;20021;-69
2023/03/23 12:34:47;;;;;;;2.55;2.30;;;;;;;;;;5051232;28;20508;-69
2023/03/23 12:37:26;;;;;;;4.05;2.35;;;;;;;;;;5051935;28;20032;-69
2023/03/23 12:39:58;;;;;;;3.28;2.47;;;;;;;;;;5050169;28;20023;-69
2023/03/23 12:42:40;;;;;;;3.35;2.38;;;;;;;;;;5049698;28;20078;-69
2023/03/23 12:45:22;;;;;;;3.85;2.28;;;;;;;;;;5046708;28;20388;-70
2023/03/23 12:47:59;;;;;;;3.42;2.33;;;;;;;;;;5049633;28;20392;-69
2023/03/23 12:50:35;;;;;;;3.30;2.20;;;;;;;;;;5051208;28;20013;-69
2023/03/23 12:53:01;;;;;;;2.85;2.20;;;;;;;;;;5049981;28;20021;-69
2023/03/23 12:55:41;;;;;;;3.00;2.00;;;;;;;;;;5050180;28;20029;-69
2023/03/23 12:58:28;;;;;;;2.93;2.20;;;;;;;;;;5049512;28;20025;-69
2023/03/23 13:00:58;;;;;;;2.00;1.67;;;;;;;;;;5039653;28;20390;-69
2023/03/23 13:03:34;;;;;;;2.90;1.92;;;;;;;;;;5047759;28;20020;-69
2023/03/23 13:06:11;;;;;;;5.55;1.90;;;;;;;;;;5049720;28;20035;-69
2023/03/23 13:08:44;;;;;;;2.15;1.63;;;;;;;;;;5047529;28;20024;-70
2023/03/23 13:11:16;;;;;;;3.30;1.80;;;;;;;;;;5048811;28;20548;-69
2023/03/23 13:13:50;;;;;;;3.28;1.70;;;;;;;;;;5049271;28;20035;-70
2023/03/23 13:16:45;;;;;;;2.92;1.80;;;;;;;;;;5049802;28;20035;-70
2023/03/23 13:19:23;;;;;;;4.68;1.92;;;;;;;;;;5046212;28;20027;-70
2023/03/23 13:22:16;;;;;;;4.10;2.10;;;;;;;;;;5048503;28;20037;-69
2023/03/23 13:24:47;;;;;;;3.33;2.00;;;;;;;;;;5018937;28;20036;-69
2023/03/23 13:27:14;;;;;;;3.90;2.25;;;;;;;;;;5017440;28;20028;-69
2023/03/23 13:29:45;;;;;;;2.78;2.08;;;;;;;;;;5008218;28;20537;-69
2023/03/23 13:32:13;;;;;;;2.65;1.55;;;;;;;;;;5024777;28;20037;-69
2023/03/23 13:34:40;;;;;;;2.78;1.77;;;;;;;;;;5017774;28;20037;-69
2023/03/23 13:37:11;;;;;;;2.17;1.83;;;;;;;;;;5021977;28;20401;-69
2023/03/23 13:39:48;;;;;;;2.38;2.10;;;;;;;;;;5010837;28;20034;-68
2023/03/23 13:42:15;;;;;;;3.85;1.95;;;;;;;;;;5009869;28;20068;-69
2023/03/23 13:44:45;;;;;;;4.40;2.03;;;;;;;;;;5020964;28;20025;-69
2023/03/23 13:47:23;;;;;;;3.78;2.60;;;;;;;;;;5029421;28;20044;-69
2023/03/23 13:50:10;;;;;;;3.08;2.10;;;;;;;;;;5028189;28;20048;-69
2023/03/23 13:52:36;;;;;;;2.40;2.10;;;;;;;;;;5025186;28;20032;-68
2023/03/23 13:55:21;;;;;;;4.88;2.20;;;;;;;;;;5017727;28;20095;-67
2023/03/23 13:57:57;;;;;;;2.28;2.08;;;;;;;;;;5017198;28;20059;-69
2023/03/23 14:00:29;;;;;;;3.85;2.65;;;;;;;;;;5018137;28;20026;-68
2023/03/23 14:03:03;;;;;;;3.35;2.58;;;;;;;;;;5037918;28;20515;-69
2023/03/23 14:05:35;;;;;;;8.88;2.25;;;;;;;;;;5049661;28;20024;-69
2023/03/23 14:08:10;;;;;;;2.45;2.25;;;;;;;;;;5048800;28;20037;-69
2023/03/23 14:10:44;;;;;;;2.90;2.33;;;;;;;;;;5048551;28;20013;-69
2023/03/23 14:13:18;;;;;;;3.72;2.35;;;;;;;;;;5050961;28;20040;-69
2023/03/23 14:15:46;;;;;;;4.22;2.25;;;;;;;;;;5049508;28;20396;-69
2023/03/23 14:18:15;;;;;;;3.28;2.45;;;;;;;;;;5050122;28;20021;-69
2023/03/23 14:20:41;;;;;;;2.97;2.50;;;;;;;;;;5049680;28;20059;-69
2023/03/23 14:23:15;;;;;;;4.28;2.50;;;;;;;;;;5049754;28;20032;-69
2023/03/23 14:25:41;;;;;;;3.88;2.50;;;;;;;;;;5031192;28;20021;-69
2023/03/23 14:28:18;;;;;;;3.63;2.38;;;;;;;;;;5030566;28;20067;-69
2023/03/23 14:30:44;;;;;;;5.05;2.70;;;;;;;;;;5043184;28;20043;-69
2023/03/23 14:33:13;;;;;;;5.78;2.42;;;;;;;;;;5049441;28;20033;-69
2023/03/23 14:35:41;;;;;;;2.75;2.53;;;;;;;;;;5050702;28;20461;-68
2023/03/23 14:38:14;;;;;;;6.25;2.60;;;;;;;;;;5050785;28;20021;-69
2023/03/23 14:40:40;;;;;;;3.50;2.38;;;;;;;;;;5049399;28;20688;-70
2023/03/23 14:43:07;;;;;;;4.25;2.50;;;;;;;;;;5049603;28;20037;-70
2023/03/23 14:45:33;;;;;;;2.80;2.53;;;;;;;;;;5049885;28;20024;-69
2023/03/23 14:48:01;;;;;;;4.65;2.58;;;;;;;;;;5048639;28;20033;-69
2023/03/23 14:50:36;;;;;;;2.65;2.40;;;;;;;;;;5052730;28;20037;-69
2023/03/23 14:53:10;;;;;;;3.78;2.80;;;;;;;;;;5053964;28;20028;-69
2023/03/23 14:55:36;;;;;;;9.20;2.72;;;;;;;;;;5052945;28;20070;-68
2023/03/23 14:58:08;;;;;;;3.60;2.53;;;;;;;;;;5053650;28;20485;-69